createdAt,value
2022-09-16T00:01:49.436Z,18.50
2022-09-16T00:06:52.420Z,12.20
2022-09-16T00:11:55.506Z,11.50
2022-09-16T00:16:58.555Z,14.10
2022-09-16T00:22:01.407Z,12.60
2022-09-16T00:27:04.477Z,16.40
2022-09-16T00:32:07.566Z,18.00
2022-09-16T00:37:10.515Z,14.70
2022-09-16T00:42:13.394Z,12.30
2022-09-16T00:47:23.637Z,11.20
2022-09-16T00:52:28.837Z,11.50
2022-09-16T00:57:31.799Z,15.30
2022-09-16T01:02:35.052Z,12.80
2022-09-16T01:07:43.949Z,14.70
2022-09-16T01:12:52.331Z,15.50
2022-09-16T01:17:57.963Z,13.90
2022-09-16T01:28:31.597Z,14.70
2022-09-16T01:33:44.796Z,15.80
2022-09-16T01:39:10.986Z,13.80
2022-09-16T01:44:27.068Z,14.40
2022-09-16T01:49:46.348Z,13.60
2022-09-16T01:54:56.669Z,15.80
2022-09-16T02:00:11.663Z,14.20
2022-09-16T02:05:24.701Z,14.40
2022-09-16T02:10:35.621Z,14.20
2022-09-16T02:15:42.531Z,11.10
2022-09-16T02:20:48.029Z,13.00
2022-09-16T02:25:54.673Z,14.00
2022-09-16T02:31:02.055Z,15.40
2022-09-16T02:36:07.939Z,17.10
2022-09-16T02:41:14.902Z,15.10
2022-09-16T02:46:33.455Z,15.80
2022-09-16T02:51:54.996Z,13.80
2022-09-16T02:56:58.071Z,16.90
2022-09-16T03:02:01.473Z,14.40
2022-09-16T03:07:11.198Z,15.10
2022-09-16T03:12:32.400Z,14.70
2022-09-16T03:17:56.712Z,15.30
2022-09-16T03:23:29.652Z,12.80
2022-09-16T03:28:41.435Z,14.40
2022-09-16T03:34:13.672Z,13.50
2022-09-16T03:39:17.014Z,12.70
2022-09-16T03:44:19.925Z,10.60
2022-09-16T03:49:22.708Z,9.90
2022-09-16T03:54:25.601Z,12.10
2022-09-16T03:59:29.466Z,13.50
2022-09-16T04:04:32.292Z,14.50
2022-09-16T04:09:37.403Z,12.30
2022-09-16T04:14:40.201Z,14.80
2022-09-16T04:19:43.054Z,13.50
2022-09-16T04:24:46.024Z,13.80
2022-09-16T04:29:48.877Z,12.50
2022-09-16T04:34:51.907Z,15.30
2022-09-16T04:39:55.879Z,11.60
2022-09-16T04:44:58.702Z,12.50
2022-09-16T04:50:01.705Z,14.10
2022-09-16T04:55:05.020Z,11.50
2022-09-16T05:00:08.773Z,18.80
2022-09-16T05:05:12.227Z,13.50
2022-09-16T05:10:15.166Z,14.70
2022-09-16T05:15:18.120Z,16.90
2022-09-16T05:20:21.465Z,17.80
2022-09-16T05:25:24.915Z,17.40
2022-09-16T05:30:27.948Z,17.80
2022-09-16T05:35:30.855Z,16.60
2022-09-16T05:40:33.704Z,15.40
2022-09-16T05:45:36.532Z,19.50
2022-09-16T05:50:39.337Z,15.30
2022-09-16T05:55:42.149Z,16.80
2022-09-16T06:00:46.408Z,11.20
2022-09-16T06:05:49.510Z,17.20
2022-09-16T06:10:52.478Z,15.10
2022-09-16T06:15:55.726Z,10.00
2022-09-16T06:21:04.262Z,12.50
2022-09-16T06:26:11.781Z,11.30
2022-09-16T06:31:17.383Z,9.20
2022-09-16T06:36:22.666Z,7.70
2022-09-16T06:46:29.999Z,9.20
2022-09-16T06:51:33.608Z,11.20
2022-09-16T06:56:37.946Z,7.50
2022-09-16T07:01:41.257Z,9.70
2022-09-16T07:12:09.248Z,11.50
2022-09-16T07:17:12.100Z,15.30
2022-09-16T07:22:15.020Z,8.10
2022-09-16T07:27:17.982Z,8.50
2022-09-16T07:32:21.398Z,10.80
2022-09-16T07:37:24.305Z,7.00
2022-09-16T07:42:29.530Z,6.90
2022-09-16T07:47:32.554Z,5.70
2022-09-16T07:52:35.543Z,6.10
2022-09-16T07:57:38.542Z,7.10
2022-09-16T08:02:41.779Z,8.60
2022-09-16T08:07:44.785Z,8.60
2022-09-16T08:12:48.387Z,6.20
2022-09-16T08:17:51.461Z,5.00
2022-09-16T08:22:57.901Z,5.80
2022-09-16T08:28:01.620Z,9.40
2022-09-16T08:33:04.869Z,5.90
2022-09-16T08:38:07.800Z,7.10
2022-09-16T08:43:29.563Z,4.70
2022-09-16T08:48:48.877Z,6.80
2022-09-16T08:54:01.983Z,6.00
2022-09-16T08:59:11.999Z,7.00
2022-09-16T09:04:15.723Z,7.20
2022-09-16T09:09:37.370Z,8.80
2022-09-16T09:15:02.184Z,8.70
2022-09-16T09:20:22.752Z,6.00
2022-09-16T09:25:36.859Z,5.70
2022-09-16T09:30:44.843Z,7.90
2022-09-16T09:36:07.305Z,5.10
2022-09-16T09:41:38.925Z,7.40
2022-09-16T09:46:48.405Z,6.50
2022-09-16T09:52:08.131Z,5.30
2022-09-16T09:57:47.203Z,5.30
2022-09-16T10:02:50.389Z,6.70
2022-09-16T10:07:58.861Z,4.50
2022-09-16T10:13:13.129Z,7.50
2022-09-16T10:18:26.002Z,6.20
2022-09-16T10:23:30.184Z,6.90
2022-09-16T10:28:33.609Z,4.60
2022-09-16T10:33:45.917Z,6.40
2022-09-16T10:39:03.864Z,5.40
2022-09-16T10:44:26.677Z,6.10
2022-09-16T10:49:38.217Z,3.80
2022-09-16T10:54:41.201Z,5.00
2022-09-16T10:59:44.155Z,4.20
2022-09-16T11:04:47.016Z,4.30
2022-09-16T11:10:16.726Z,5.20
2022-09-16T11:15:29.803Z,6.30
2022-09-16T11:20:44.415Z,4.90
2022-09-16T11:26:00.807Z,4.70
2022-09-16T11:31:27.896Z,4.60
2022-09-16T11:37:08.909Z,5.90
2022-09-16T11:42:26.569Z,21.80
2022-09-16T11:47:29.353Z,3.20
2022-09-16T11:52:45.300Z,2.70
2022-09-16T11:57:58.874Z,4.40
2022-09-16T12:03:10.842Z,1.80
2022-09-16T12:08:27.914Z,4.40
2022-09-16T12:13:43.283Z,5.00
2022-09-16T12:18:50.917Z,2.80
2022-09-16T12:24:01.302Z,4.10
2022-09-16T12:29:25.866Z,2.50
2022-09-16T12:34:41.919Z,4.70
2022-09-16T12:39:46.165Z,3.70
2022-09-16T12:45:08.154Z,3.00
2022-09-16T12:50:28.561Z,2.40
2022-09-16T12:55:56.827Z,3.30
2022-09-16T13:01:30.773Z,2.80
2022-09-16T13:06:39.273Z,1.50
2022-09-16T13:17:05.742Z,1.90
2022-09-16T13:22:20.099Z,3.10
2022-09-16T13:27:36.038Z,1.70
2022-09-16T13:32:46.209Z,3.30
2022-09-16T13:37:52.084Z,1.60
2022-09-16T13:43:14.316Z,2.30
2022-09-16T13:48:21.900Z,3.20
2022-09-16T13:53:29.259Z,6.20
2022-09-16T13:58:38.950Z,4.20
2022-09-16T14:03:51.365Z,5.30
2022-09-16T14:09:16.989Z,4.00
2022-09-16T14:19:52.732Z,18.30
2022-09-16T14:25:06.276Z,4.70
2022-09-16T14:30:18.563Z,4.60
2022-09-16T14:35:24.255Z,4.50
2022-09-16T14:40:29.403Z,5.00
2022-09-16T14:45:34.950Z,3.50
2022-09-16T14:55:48.884Z,5.70
2022-09-16T15:01:14.035Z,6.40
2022-09-16T15:06:22.764Z,5.50
2022-09-16T15:11:47.505Z,5.40
2022-09-16T15:16:58.186Z,6.60
2022-09-16T15:22:02.033Z,4.90
2022-09-16T15:27:05.470Z,6.00
2022-09-16T15:32:24.209Z,9.70
2022-09-16T15:37:32.966Z,9.30
2022-09-16T15:42:36.816Z,8.50
2022-09-16T15:47:54.047Z,4.70
2022-09-16T15:53:08.616Z,8.60
2022-09-16T15:58:33.614Z,5.10
2022-09-16T16:03:47.962Z,5.70
2022-09-16T16:08:52.719Z,6.00
2022-09-16T16:14:01.149Z,6.60
2022-09-16T16:19:06.772Z,3.00
2022-09-16T16:24:10.068Z,3.20
2022-09-16T16:29:12.921Z,4.50
2022-09-16T16:34:15.781Z,4.00
2022-09-16T16:39:18.747Z,3.60
2022-09-16T16:44:23.130Z,4.20
2022-09-16T16:49:26.229Z,3.90
2022-09-16T16:54:29.790Z,3.60
2022-09-16T16:59:33.066Z,3.10
2022-09-16T17:04:35.975Z,4.90
2022-09-16T17:09:39.327Z,5.60
2022-09-16T17:14:42.470Z,7.30
2022-09-16T17:19:45.370Z,9.80
2022-09-16T17:24:48.236Z,16.00
2022-09-16T17:29:51.101Z,5.00
2022-09-16T17:34:54.496Z,8.50
2022-09-16T17:39:57.482Z,5.00
2022-09-16T17:45:06.404Z,4.60
2022-09-16T17:50:10.066Z,4.80
2022-09-16T17:55:13.073Z,5.40
2022-09-16T18:00:16.383Z,5.50
2022-09-16T18:05:20.019Z,5.40
2022-09-16T18:10:26.256Z,7.50
2022-09-16T18:15:30.174Z,5.00
2022-09-16T18:20:33.840Z,6.90
2022-09-16T18:25:39.831Z,7.30
2022-09-16T18:30:44.281Z,5.70
2022-09-16T18:35:49.109Z,17.10
2022-09-16T18:40:52.794Z,7.40
2022-09-16T18:45:56.429Z,9.10
2022-09-16T18:50:59.538Z,8.60
2022-09-16T18:56:03.039Z,7.00
2022-09-16T19:01:17.452Z,8.40
2022-09-16T19:06:21.726Z,7.80
2022-09-16T19:11:28.700Z,6.40
2022-09-16T19:16:35.166Z,10.10
2022-09-16T19:21:38.607Z,11.40
2022-09-16T19:26:49.423Z,11.50
2022-09-16T19:31:53.054Z,10.40
2022-09-16T19:36:56.522Z,9.90
2022-09-16T19:42:03.747Z,14.30
2022-09-16T19:47:06.967Z,14.10
2022-09-16T19:52:09.922Z,9.40
2022-09-16T19:57:13.052Z,8.50
2022-09-16T20:02:16.155Z,9.40
2022-09-16T20:07:20.450Z,9.70
2022-09-16T20:12:23.298Z,10.20
2022-09-16T20:17:26.204Z,8.50
2022-09-16T20:22:29.066Z,6.50
2022-09-16T20:27:31.918Z,9.20
2022-09-16T20:32:34.825Z,9.70
2022-09-16T20:37:37.698Z,12.30
2022-09-16T20:42:40.583Z,7.40
2022-09-16T20:47:43.672Z,11.30
2022-09-16T20:52:48.915Z,10.60
2022-09-16T20:57:51.823Z,9.10
2022-09-16T21:02:55.742Z,8.00
2022-09-16T21:07:58.835Z,15.10
2022-09-16T21:13:01.657Z,12.70
2022-09-16T21:18:05.848Z,12.70
2022-09-16T21:23:08.790Z,10.70
2022-09-16T21:28:11.798Z,10.90
2022-09-16T21:33:14.691Z,10.00
2022-09-16T21:38:18.631Z,9.80
2022-09-16T21:43:22.216Z,9.00
2022-09-16T21:48:27.447Z,10.20
2022-09-16T21:53:32.013Z,8.40
2022-09-16T21:58:35.638Z,9.80
2022-09-16T22:03:39.925Z,9.70
2022-09-16T22:08:48.979Z,8.60
2022-09-16T22:13:54.173Z,9.90
2022-09-16T22:19:08.755Z,9.00
2022-09-16T22:24:12.713Z,10.10
2022-09-16T22:29:15.631Z,9.90
2022-09-16T22:34:18.595Z,9.90
2022-09-16T22:39:21.509Z,8.30
2022-09-16T22:44:24.456Z,8.80
2022-09-16T22:49:27.930Z,17.00
2022-09-16T22:54:31.223Z,11.70
2022-09-16T22:59:34.539Z,8.20
2022-09-16T23:04:37.974Z,10.10
2022-09-16T23:09:41.100Z,10.90
2022-09-16T23:14:44.837Z,10.70
2022-09-16T23:19:47.714Z,9.60
2022-09-16T23:24:50.566Z,8.50
2022-09-16T23:29:53.545Z,11.50
2022-09-16T23:34:56.351Z,9.60
2022-09-16T23:40:00.479Z,12.70
2022-09-16T23:45:04.429Z,11.10
2022-09-16T23:50:11.785Z,13.10
2022-09-16T23:55:14.929Z,10.80
